Time;durP1;ratioP1;P1;durP2;ratioP2;P2;SDS_P1;SDS_P2;PMS_P1;PMS_P2;Temp;Humidity;BMP_temperature;BMP_pressure;BME280_temperature;BME280_humidity;BME280_pressure;Samples;Min_cycle;Max_cycle;Signal;HPM_P1;HPM_P2
2022/08/08 00:00:05;;;;;;;;;;;23.10;59.20;;;;;;5072282;28;20048;-66
2022/08/08 00:03:02;;;;;;;2.83;1.60;;;23.00;59.10;;;;;;5074172;28;20348;-66
2022/08/08 00:05:38;;;;;;;3.55;1.55;;;23.00;59.20;;;;;;5076100;28;20041;-67
2022/08/08 00:08:18;;;;;;;2.22;1.50;;;23.00;59.30;;;;;;5075723;28;20071;-66
2022/08/08 00:11:06;;;;;;;2.08;1.33;;;23.00;59.30;;;;;;5074342;28;20045;-67
2022/08/08 00:13:39;;;;;;;2.05;1.27;;;23.00;59.30;;;;;;5072321;28;20176;-67
2022/08/08 00:16:24;;;;;;;3.08;1.55;;;23.00;59.30;;;;;;5073416;28;20045;-66
2022/08/08 00:19:18;;;;;;;2.45;1.20;;;23.00;59.30;;;;;;5074207;28;20102;-66
2022/08/08 00:21:50;;;;;;;4.07;1.70;;;23.00;59.30;;;;;;5074025;28;20079;-67
2022/08/08 00:24:43;;;;;;;3.45;1.70;;;23.00;59.30;;;;;;5073692;28;20162;-67
2022/08/08 00:27:10;;;;;;;3.55;1.60;;;23.00;59.30;;;;;;5072619;28;20053;-67
2022/08/08 00:29:54;;;;;;;3.28;1.50;;;23.00;59.40;;;;;;5073349;28;20871;-67
2022/08/08 00:32:23;;;;;;;2.17;1.40;;;23.00;59.40;;;;;;5074174;28;20063;-67
2022/08/08 00:35:17;;;;;;;2.55;1.55;;;23.00;59.40;;;;;;5074055;28;20041;-67
2022/08/08 00:38:10;;;;;;;3.00;1.50;;;23.00;59.40;;;;;;5059758;28;20048;-67
2022/08/08 00:40:47;;;;;;;2.08;1.20;;;23.00;59.40;;;;;;5074162;28;20124;-67
2022/08/08 00:43:37;;;;;;;3.70;1.27;;;22.90;59.50;;;;;;5074235;28;20044;-67
2022/08/08 00:46:17;;;;;;;3.65;1.60;;;23.00;59.60;;;;;;5074684;28;20415;-67
2022/08/08 00:48:50;;;;;;;2.10;1.30;;;22.90;59.40;;;;;;5058033;28;20047;-68
2022/08/08 00:51:43;;;;;;;3.47;1.45;;;22.90;59.50;;;;;;5073346;28;20047;-67
2022/08/08 00:54:47;;;;;;;2.28;1.38;;;22.90;59.50;;;;;;5073739;28;20075;-66
2022/08/08 00:57:50;;;;;;;2.85;1.52;;;22.90;59.50;;;;;;5074783;28;20558;-67
2022/08/08 01:00:22;;;;;;;2.58;1.50;;;22.90;59.50;;;;;;5074890;28;20044;-67
2022/08/08 01:03:09;;;;;;;2.70;1.38;;;22.90;59.50;;;;;;5073422;28;20048;-67
2022/08/08 01:05:38;;;;;;;1.90;1.40;;;22.90;59.50;;;;;;5072706;28;20048;-67
2022/08/08 01:08:25;;;;;;;2.42;1.33;;;22.90;59.60;;;;;;5073392;28;20080;-67
2022/08/08 01:11:27;;;;;;;2.80;1.63;;;22.90;59.60;;;;;;5074307;28;20140;-67
2022/08/08 01:13:59;;;;;;;1.92;1.25;;;22.90;59.50;;;;;;5072789;28;20548;-67
2022/08/08 01:16:36;;;;;;;4.47;1.40;;;22.90;59.60;;;;;;5074534;28;20044;-67
2022/08/08 01:19:02;;;;;;;2.58;1.60;;;22.90;59.60;;;;;;5073772;28;20136;-67
2022/08/08 01:21:52;;;;;;;2.90;1.30;;;22.80;59.60;;;;;;5074485;28;20132;-67
2022/08/08 01:24:40;;;;;;;2.35;1.30;;;22.80;59.50;;;;;;5073434;28;20068;-67
2022/08/08 01:27:24;;;;;;;2.65;1.55;;;22.90;59.60;;;;;;5073261;28;20106;-67
2022/08/08 01:29:49;;;;;;;1.90;1.20;;;22.80;59.60;;;;;;5072975;28;20036;-67
2022/08/08 01:32:43;;;;;;;2.30;1.33;;;22.80;59.70;;;;;;5073838;28;20400;-67
2022/08/08 01:35:31;;;;;;;3.50;1.52;;;22.80;59.70;;;;;;5074135;28;20044;-67
2022/08/08 01:38:05;;;;;;;2.30;1.23;;;22.80;59.70;;;;;;5072604;28;20041;-67
2022/08/08 01:40:57;;;;;;;2.13;1.50;;;22.80;59.80;;;;;;5073118;28;20044;-67
2022/08/08 01:43:57;;;;;;;2.30;1.30;;;22.80;59.80;;;;;;5074056;28;20044;-67
2022/08/08 01:46:29;;;;;;;2.55;1.48;;;22.80;59.80;;;;;;5072875;28;20045;-67
2022/08/08 01:49:06;;;;;;;2.40;1.38;;;22.80;59.80;;;;;;5073072;28;20049;-67
2022/08/08 01:51:57;;;;;;;2.37;1.20;;;22.80;59.80;;;;;;5074197;28;20044;-67
2022/08/08 01:54:37;;;;;;;2.05;1.30;;;22.80;59.80;;;;;;5072135;28;20092;-67
2022/08/08 01:57:40;;;;;;;2.15;1.30;;;22.80;60.20;;;;;;5073669;28;20101;-67
2022/08/08 02:00:12;;;;;;;2.50;1.20;;;22.80;59.80;;;;;;5073375;28;20041;-67
2022/08/08 02:03:05;;;;;;;2.60;1.40;;;22.80;59.90;;;;;;5051585;28;20299;-67
2022/08/08 02:05:44;;;;;;;2.28;1.30;;;22.80;59.90;;;;;;5052975;28;20056;-67
2022/08/08 02:08:52;;;;;;;2.25;1.38;;;22.80;59.90;;;;;;5051735;28;20045;-67
2022/08/08 02:11:24;;;;;;;2.10;1.20;;;22.80;59.90;;;;;;5052464;28;20499;-67
2022/08/08 02:14:26;;;;;;;2.10;1.30;;;22.70;59.90;;;;;;5053470;28;20087;-67
2022/08/08 02:16:56;;;;;;;2.30;1.30;;;22.80;60.00;;;;;;5052003;28;20049;-67
2022/08/08 02:19:30;;;;;;;2.50;1.40;;;22.70;59.90;;;;;;5052329;28;20041;-67
2022/08/08 02:24:55;;;;;;;2.15;1.40;;;22.70;59.90;;;;;;5052059;28;20057;-67
2022/08/08 02:27:57;;;;;;;2.45;1.50;;;22.70;60.00;;;;;;5051984;28;20059;-67
2022/08/08 02:30:54;;;;;;;1.95;1.20;;;22.70;59.90;;;;;;5045199;28;20049;-67
2022/08/08 02:33:40;;;;;;;1.52;1.00;;;22.70;59.90;;;;;;5053320;28;20132;-67
2022/08/08 02:36:38;;;;;;;2.63;1.52;;;22.70;60.00;;;;;;5051893;28;20500;-67
2022/08/08 02:39:31;;;;;;;2.97;1.38;;;22.70;59.90;;;;;;5040807;28;20416;-67
2022/08/08 02:42:03;;;;;;;2.13;1.45;;;22.70;60.00;;;;;;5052531;28;20092;-68
2022/08/08 02:44:51;;;;;;;2.13;1.40;;;22.70;60.00;;;;;;5050903;28;20436;-67
2022/08/08 02:47:48;;;;;;;3.40;2.00;;;22.70;60.00;;;;;;5052885;28;20124;-67
2022/08/08 02:50:35;;;;;;;3.67;1.40;;;22.70;60.00;;;;;;5044903;28;20489;-67
2022/08/08 02:53:27;;;;;;;2.85;1.30;;;22.70;60.10;;;;;;5051688;28;20037;-67
2022/08/08 02:56:07;;;;;;;2.03;1.30;;;22.70;60.10;;;;;;5051352;28;20088;-67
2022/08/08 02:58:48;;;;;;;1.90;1.23;;;22.70;60.10;;;;;;5052240;28;20049;-67
2022/08/08 03:01:44;;;;;;;1.75;1.15;;;22.70;60.10;;;;;;5052921;28;20508;-67
2022/08/08 03:04:27;;;;;;;2.60;1.33;;;22.70;60.10;;;;;;5052039;28;20114;-67
2022/08/08 03:07:16;;;;;;;2.22;1.38;;;22.60;60.00;;;;;;5052545;28;20060;-67
2022/08/08 03:10:01;;;;;;;2.53;1.45;;;22.70;60.10;;;;;;5051699;28;20048;-67
2022/08/08 03:12:50;;;;;;;2.15;1.30;;;22.60;60.10;;;;;;5033922;28;20045;-67
2022/08/08 03:15:42;;;;;;;2.13;1.20;;;22.60;60.10;;;;;;5051645;28;20119;-67
2022/08/08 03:18:19;;;;;;;2.55;1.38;;;22.60;60.20;;;;;;5050627;28;20406;-67
2022/08/08 03:20:46;;;;;;;1.77;1.27;;;22.60;60.10;;;;;;5050919;28;20049;-67
2022/08/08 03:23:12;;;;;;;1.92;1.20;;;22.60;60.20;;;;;;5052738;28;20067;-67
2022/08/08 03:25:37;;;;;;;1.75;1.27;;;22.60;60.20;;;;;;5051774;28;20041;-67
2022/08/08 03:28:16;;;;;;;2.42;1.45;;;22.60;60.20;;;;;;5034599;28;20396;-67
2022/08/08 03:30:46;;;;;;;2.13;1.40;;;22.60;60.20;;;;;;5050976;28;20447;-67
2022/08/08 03:33:17;;;;;;;1.60;1.20;;;22.60;60.20;;;;;;5050630;28;20056;-67
2022/08/08 03:35:44;;;;;;;2.53;1.10;;;22.60;60.30;;;;;;5054239;28;20067;-67
2022/08/08 03:38:09;;;;;;;1.90;1.20;;;22.60;60.20;;;;;;5056455;28;20053;-67
2022/08/08 03:40:35;;;;;;;1.95;1.10;;;22.60;60.30;;;;;;5055545;28;20044;-67
2022/08/08 03:43:01;;;;;;;2.67;1.50;;;22.60;60.30;;;;;;5056324;28;20128;-67
2022/08/08 03:45:27;;;;;;;2.38;1.33;;;22.60;60.30;;;;;;5054974;28;20045;-67
2022/08/08 03:48:01;;;;;;;1.92;1.20;;;22.60;60.20;;;;;;5055214;28;20037;-67
2022/08/08 03:50:27;;;;;;;2.17;1.25;;;22.60;60.30;;;;;;5055093;28;20051;-67
2022/08/08 03:52:52;;;;;;;2.35;1.13;;;22.60;60.30;;;;;;5056093;28;20036;-67
2022/08/08 03:55:19;;;;;;;1.92;1.35;;;22.60;60.30;;;;;;5055148;28;20055;-67
2022/08/08 03:57:53;;;;;;;2.92;1.17;;;22.60;60.30;;;;;;5055821;28;20056;-67
2022/08/08 04:00:22;;;;;;;2.90;1.08;;;22.60;60.30;;;;;;5055161;28;20473;-67
2022/08/08 04:03:13;;;;;;;1.70;1.10;;;22.50;60.30;;;;;;5061552;28;20055;-67
2022/08/08 04:05:39;;;;;;;3.15;1.65;;;22.50;60.20;;;;;;5074054;28;20055;-67
2022/08/08 04:08:05;;;;;;;1.90;1.33;;;22.50;60.90;;;;;;5074722;28;20040;-67
2022/08/08 04:10:31;;;;;;;2.35;1.30;;;22.50;60.30;;;;;;5075708;28;20079;-67
2022/08/08 04:12:57;;;;;;;2.80;1.30;;;22.50;60.30;;;;;;5075433;28;20127;-67
2022/08/08 04:15:22;;;;;;;1.83;1.10;;;22.50;60.30;;;;;;5074823;28;20170;-67
2022/08/08 04:17:48;;;;;;;2.33;1.13;;;22.50;60.30;;;;;;5075470;28;20075;-66
2022/08/08 04:20:14;;;;;;;2.70;1.40;;;22.50;60.30;;;;;;5075972;28;20044;-67
2022/08/08 04:22:39;;;;;;;2.05;1.20;;;22.50;60.30;;;;;;5074912;28;20068;-67
2022/08/08 04:25:05;;;;;;;2.90;1.20;;;22.50;60.30;;;;;;5074110;28;20064;-67
2022/08/08 04:27:31;;;;;;;1.67;1.20;;;22.50;60.30;;;;;;5074466;28;20051;-67
2022/08/08 04:29:57;;;;;;;4.07;1.60;;;22.50;60.30;;;;;;5074595;28;20036;-67
2022/08/08 04:32:22;;;;;;;1.70;1.20;;;22.50;60.30;;;;;;5075327;28;20454;-67
2022/08/08 04:34:48;;;;;;;1.90;1.10;;;22.50;60.30;;;;;;5075010;28;20037;-68
2022/08/08 04:37:13;;;;;;;1.63;1.13;;;22.50;60.30;;;;;;5074560;28;20115;-67
2022/08/08 04:39:39;;;;;;;2.03;1.40;;;22.50;60.30;;;;;;5075545;28;20051;-67
2022/08/08 04:42:05;;;;;;;1.85;1.10;;;22.50;60.30;;;;;;5073181;28;20040;-67
2022/08/08 04:44:30;;;;;;;2.08;1.25;;;22.50;60.30;;;;;;5073451;28;20049;-67
2022/08/08 04:46:56;;;;;;;1.63;1.20;;;22.50;60.30;;;;;;5074625;28;20059;-67
2022/08/08 04:49:21;;;;;;;1.98;1.10;;;22.40;60.20;;;;;;5075306;28;20041;-67
2022/08/08 04:51:47;;;;;;;1.65;1.17;;;22.50;60.30;;;;;;5074173;28;20050;-67
2022/08/08 04:54:12;;;;;;;2.65;1.25;;;22.50;60.30;;;;;;5075032;28;20036;-67
2022/08/08 04:56:38;;;;;;;2.45;1.33;;;22.50;60.30;;;;;;5074105;28;20073;-67
2022/08/08 04:59:03;;;;;;;1.75;1.15;;;22.50;60.30;;;;;;5074592;28;20089;-67
2022/08/08 05:01:29;;;;;;;2.35;1.20;;;22.40;60.30;;;;;;5075106;28;20041;-67
2022/08/08 05:03:55;;;;;;;1.77;1.10;;;22.50;60.30;;;;;;5073850;28;20109;-67
2022/08/08 05:06:20;;;;;;;2.92;1.35;;;22.50;60.40;;;;;;5074769;28;20128;-67
2022/08/08 05:08:46;;;;;;;1.65;1.00;;;22.50;60.40;;;;;;5074716;28;20186;-67
2022/08/08 05:11:12;;;;;;;2.05;1.17;;;22.50;60.30;;;;;;5073712;28;20048;-67
2022/08/08 05:13:41;;;;;;;2.55;1.17;;;22.50;60.30;;;;;;5074577;28;20072;-68
2022/08/08 05:16:07;;;;;;;1.73;1.10;;;22.50;60.40;;;;;;5074470;28;20041;-64
2022/08/08 05:18:32;;;;;;;1.55;1.15;;;22.50;60.40;;;;;;5074122;28;20047;-64
2022/08/08 05:21:01;;;;;;;2.95;1.17;;;22.50;60.40;;;;;;5074462;28;20538;-65
2022/08/08 05:23:27;;;;;;;2.72;1.35;;;22.60;60.40;;;;;;5073533;28;20127;-65
2022/08/08 05:25:52;;;;;;;2.78;1.10;;;22.60;60.40;;;;;;5071909;28;20127;-65
2022/08/08 05:28:18;;;;;;;3.65;1.30;;;22.60;60.50;;;;;;5074286;28;20495;-65
2022/08/08 05:30:44;;;;;;;1.95;1.17;;;22.60;60.60;;;;;;5072604;28;20052;-65
2022/08/08 05:33:09;;;;;;;3.92;1.23;;;22.60;60.60;;;;;;5072307;28;20106;-65
2022/08/08 05:35:35;;;;;;;2.88;1.23;;;22.60;60.60;;;;;;5074274;28;20045;-65
2022/08/08 05:38:04;;;;;;;2.17;1.27;;;22.60;60.50;;;;;;5073873;28;20070;-65
2022/08/08 05:40:29;;;;;;;2.38;0.98;;;22.60;60.50;;;;;;5072248;28;20141;-65
2022/08/08 05:43:02;;;;;;;2.40;1.05;;;22.60;61.10;;;;;;5073636;28;20143;-65
2022/08/08 05:45:36;;;;;;;2.20;1.00;;;22.70;60.60;;;;;;5074006;28;20539;-65
2022/08/08 05:48:02;;;;;;;2.90;1.20;;;22.60;60.70;;;;;;5071942;28;20059;-65
2022/08/08 05:50:31;;;;;;;3.72;1.08;;;22.60;60.80;;;;;;5074156;28;20040;-65
2022/08/08 05:52:57;;;;;;;2.95;1.38;;;22.60;60.90;;;;;;5072840;28;20056;-65
2022/08/08 05:55:22;;;;;;;3.40;1.15;;;22.70;60.90;;;;;;5072525;28;20044;-65
2022/08/08 05:57:50;;;;;;;3.47;1.10;;;22.70;61.00;;;;;;5072664;28;20047;-63
2022/08/08 06:00:16;;;;;;;2.40;1.30;;;22.70;61.00;;;;;;5073142;28;20503;-63
2022/08/08 06:05:30;;;;;;;3.90;1.25;;;22.70;61.00;;;;;;5044112;28;20056;-65
2022/08/08 06:07:56;;;;;;;4.47;1.30;;;22.70;60.90;;;;;;5072580;28;20055;-64
2022/08/08 06:10:21;;;;;;;5.80;1.20;;;22.70;61.10;;;;;;5072496;28;20036;-64
2022/08/08 06:12:47;;;;;;;2.08;0.75;;;22.70;61.20;;;;;;5039005;28;20048;-64
2022/08/08 06:15:13;;;;;;;4.60;1.30;;;22.70;61.30;;;;;;5071800;28;20097;-64
2022/08/08 06:17:39;;;;;;;3.97;1.13;;;22.70;61.40;;;;;;5072342;28;20045;-64
2022/08/08 06:20:09;;;;;;;3.63;1.05;;;22.70;61.40;;;;;;5071955;28;20411;-64
2022/08/08 06:22:35;;;;;;;1.90;0.88;;;22.60;61.30;;;;;;5071497;28;20070;-64
2022/08/08 06:25:01;;;;;;;2.22;1.20;;;22.70;61.50;;;;;;5072987;28;20123;-65
2022/08/08 06:27:35;;;;;;;4.53;1.60;;;22.70;61.50;;;;;;5073200;28;20503;-64
2022/08/08 06:30:03;;;;;;;3.00;1.17;;;22.70;61.50;;;;;;5072432;28;20040;-69
2022/08/08 06:32:29;;;;;;;4.88;1.30;;;22.70;61.70;;;;;;5055153;28;20064;-65
2022/08/08 06:34:55;;;;;;;5.70;1.17;;;22.70;61.70;;;;;;5072681;28;20407;-65
2022/08/08 06:37:22;;;;;;;6.07;1.20;;;22.70;61.70;;;;;;5071103;28;20460;-65
2022/08/08 06:39:49;;;;;;;4.68;1.30;;;22.70;61.70;;;;;;5055198;28;20048;-65
2022/08/08 06:42:15;;;;;;;2.72;1.17;;;22.70;61.80;;;;;;5070630;28;20553;-65
2022/08/08 06:44:41;;;;;;;1.85;1.05;;;22.70;61.90;;;;;;5070629;28;20044;-65
2022/08/08 06:47:06;;;;;;;3.05;0.80;;;22.70;61.90;;;;;;5069615;28;20048;-65
2022/08/08 06:49:32;;;;;;;2.10;0.98;;;22.70;61.90;;;;;;5072173;28;20044;-65
2022/08/08 06:51:58;;;;;;;2.20;1.08;;;22.70;62.00;;;;;;5071403;28;20539;-65
2022/08/08 06:54:24;;;;;;;2.05;1.10;;;22.70;62.00;;;;;;5055130;28;20040;-64
2022/08/08 06:56:50;;;;;;;2.40;1.20;;;22.70;62.00;;;;;;5070657;28;20131;-65
2022/08/08 06:59:16;;;;;;;4.00;1.40;;;22.80;62.10;;;;;;5072914;28;20052;-65
2022/08/08 07:01:47;;;;;;;1.75;0.93;;;22.80;62.20;;;;;;5072932;28;20059;-65
2022/08/08 07:04:23;;;;;;;3.08;1.25;;;22.80;62.20;;;;;;5070321;28;20407;-64
2022/08/08 07:06:57;;;;;;;2.75;1.20;;;22.80;62.10;;;;;;5069626;28;20052;-65
2022/08/08 07:09:50;;;;;;;2.83;1.15;;;22.80;62.20;;;;;;5070635;28;20048;-65
2022/08/08 07:12:19;;;;;;;3.20;1.23;;;22.80;62.30;;;;;;5063680;28;20049;-65
2022/08/08 07:14:51;;;;;;;2.90;1.00;;;22.80;62.30;;;;;;5071239;28;20048;-65
2022/08/08 07:17:17;;;;;;;4.60;1.20;;;22.80;62.30;;;;;;5070731;28;20040;-64
2022/08/08 07:19:50;;;;;;;1.95;1.00;;;22.80;62.20;;;;;;5054657;28;20445;-64
2022/08/08 07:22:21;;;;;;;2.45;1.45;;;22.80;62.10;;;;;;5071422;28;20044;-64
2022/08/08 07:25:02;;;;;;;3.50;1.30;;;22.80;62.00;;;;;;5070674;28;20041;-64
2022/08/08 07:27:33;;;;;;;5.10;1.10;;;22.80;62.00;;;;;;5072544;28;20041;-64
2022/08/08 07:29:59;;;;;;;5.90;1.30;;;22.80;62.00;;;;;;5071045;28;20048;-66
2022/08/08 07:32:24;;;;;;;7.55;1.42;;;22.80;62.00;;;;;;5069945;28;20054;-68
2022/08/08 07:34:50;;;;;;;7.00;1.50;;;22.80;61.90;;;;;;5053447;28;20032;-64
2022/08/08 07:37:17;;;;;;;9.50;1.75;;;22.80;61.90;;;;;;5070625;28;20041;-65
2022/08/08 07:39:42;;;;;;;6.40;1.30;;;22.80;62.00;;;;;;5069989;28;20074;-66
2022/08/08 07:42:14;;;;;;;7.60;1.50;;;22.80;62.20;;;;;;5072180;28;20064;-65
2022/08/08 07:44:43;;;;;;;5.40;1.35;;;22.80;62.20;;;;;;5071452;28;20147;-66
2022/08/08 07:47:09;;;;;;;4.50;1.40;;;22.80;62.40;;;;;;5053631;28;20040;-65
2022/08/08 07:49:40;;;;;;;5.72;1.30;;;22.80;62.40;;;;;;5071221;28;20164;-65
2022/08/08 07:52:10;;;;;;;11.52;2.38;;;22.80;62.40;;;;;;5072076;28;20067;-65
2022/08/08 07:54:45;;;;;;;10.18;1.58;;;22.80;62.40;;;;;;5070400;28;20122;-65
2022/08/08 07:57:15;;;;;;;9.15;1.50;;;22.80;62.30;;;;;;5055268;28;20044;-65
2022/08/08 07:59:53;;;;;;;5.70;1.33;;;22.80;62.10;;;;;;5071701;28;20508;-66
2022/08/08 08:02:22;;;;;;;5.35;1.40;;;22.80;61.20;;;;;;5072385;28;20052;-64
2022/08/08 08:04:48;;;;;;;7.15;1.50;;;22.80;60.90;;;;;;5070648;28;20044;-65
2022/08/08 08:07:14;;;;;;;11.27;2.25;;;22.80;60.50;;;;;;5070531;28;20051;-65
2022/08/08 08:09:41;;;;;;;7.72;1.23;;;22.80;60.30;;;;;;5071847;28;20040;-64
2022/08/08 08:12:06;;;;;;;6.50;1.55;;;22.80;60.30;;;;;;5071461;28;20416;-64
2022/08/08 08:14:56;;;;;;;7.70;2.30;;;22.80;60.20;;;;;;5069930;28;20037;-64
2022/08/08 08:17:22;;;;;;;4.32;1.50;;;22.80;59.90;;;;;;5071077;28;20053;-65
2022/08/08 08:19:48;;;;;;;4.55;1.27;;;22.80;60.00;;;;;;5070482;28;20530;-65
2022/08/08 08:22:15;;;;;;;7.05;1.55;;;22.80;59.90;;;;;;5073758;28;20040;-65
2022/08/08 08:24:41;;;;;;;4.03;1.42;;;22.80;59.80;;;;;;5075698;28;20467;-65
2022/08/08 08:27:06;;;;;;;7.43;1.90;;;22.80;60.00;;;;;;5074096;28;20553;-65
2022/08/08 08:29:32;;;;;;;2.97;1.38;;;22.80;59.90;;;;;;5074751;28;20048;-65
2022/08/08 08:31:58;;;;;;;3.60;1.27;;;22.80;60.00;;;;;;5074113;28;20056;-65
2022/08/08 08:34:23;;;;;;;10.63;1.63;;;22.80;60.00;;;;;;5075367;28;20052;-65
2022/08/08 08:36:49;;;;;;;5.10;1.50;;;22.80;59.90;;;;;;5074508;28;20047;-65
2022/08/08 08:39:14;;;;;;;8.85;1.13;;;22.80;60.00;;;;;;5074274;28;20214;-65
2022/08/08 08:41:40;;;;;;;4.88;1.40;;;22.80;60.00;;;;;;5074604;28;20475;-65
2022/08/08 08:44:05;;;;;;;3.70;1.10;;;22.80;60.00;;;;;;5074028;28;20547;-65
2022/08/08 08:46:31;;;;;;;4.80;1.20;;;22.80;60.00;;;;;;5073976;28;20467;-65
2022/08/08 08:48:56;;;;;;;5.45;1.25;;;22.80;60.00;;;;;;5072964;28;20041;-65
2022/08/08 08:51:24;;;;;;;4.63;1.20;;;22.80;59.90;;;;;;5057444;28;20043;-65
2022/08/08 08:53:51;;;;;;;4.63;1.33;;;22.80;60.00;;;;;;5074754;28;20076;-65
2022/08/08 08:56:18;;;;;;;2.80;1.45;;;22.80;60.00;;;;;;5074298;28;20058;-65
2022/08/08 08:58:44;;;;;;;7.50;1.50;;;22.80;60.00;;;;;;5074864;28;20048;-65
2022/08/08 09:01:11;;;;;;;7.75;1.40;;;22.80;60.00;;;;;;5073952;28;20056;-64
2022/08/08 09:03:38;;;;;;;3.38;1.20;;;22.90;60.00;;;;;;5074362;28;20043;-64
2022/08/08 09:06:04;;;;;;;3.47;1.37;;;22.80;60.00;;;;;;5073284;28;20450;-64
2022/08/08 09:08:29;;;;;;;3.22;1.23;;;22.90;60.10;;;;;;5073493;28;20559;-65
2022/08/08 09:10:55;;;;;;;6.60;1.50;;;22.90;60.10;;;;;;5073734;28;20127;-65
2022/08/08 09:13:21;;;;;;;4.15;1.25;;;22.90;60.00;;;;;;5073858;28;20472;-65
2022/08/08 09:15:47;;;;;;;5.47;1.08;;;22.90;60.10;;;;;;5074341;28;20045;-65
2022/08/08 09:18:16;;;;;;;3.88;1.20;;;22.90;60.10;;;;;;5073873;28;20048;-65
2022/08/08 09:20:45;;;;;;;3.17;1.02;;;22.90;60.00;;;;;;5072674;28;20400;-65
2022/08/08 09:23:13;;;;;;;4.18;1.30;;;22.90;60.10;;;;;;5066916;28;20431;-65
2022/08/08 09:25:48;;;;;;;4.38;1.00;;;22.90;60.40;;;;;;5054165;28;20041;-66
2022/08/08 09:28:14;;;;;;;4.80;1.20;;;22.90;61.00;;;;;;5057085;28;20052;-65
2022/08/08 09:30:41;;;;;;;5.43;1.50;;;22.90;61.20;;;;;;5066427;28;20053;-66
2022/08/08 09:33:06;;;;;;;5.00;1.15;;;22.90;61.30;;;;;;5047755;28;20049;-66
2022/08/08 09:35:32;;;;;;;2.35;1.20;;;22.90;61.30;;;;;;5052421;28;20059;-66
2022/08/08 09:38:01;;;;;;;3.40;1.20;;;22.90;61.40;;;;;;5067843;28;20394;-66
2022/08/08 09:40:28;;;;;;;3.60;1.10;;;23.00;61.40;;;;;;5052666;28;20140;-66
2022/08/08 09:43:02;;;;;;;6.07;1.23;;;22.90;61.40;;;;;;5053678;28;20080;-66
2022/08/08 09:45:32;;;;;;;2.90;1.20;;;22.90;61.50;;;;;;5052834;28;20040;-66
2022/08/08 09:48:00;;;;;;;5.72;1.23;;;23.00;61.50;;;;;;5052408;28;20072;-65
2022/08/08 09:50:26;;;;;;;;;;;23.00;61.40;;;;;;5069253;28;20420;-65
2022/08/08 09:52:52;;;;;;;4.43;1.27;;;23.00;61.30;;;;;;5052946;28;19927;-65
2022/08/08 09:55:18;;;;;;;4.25;1.23;;;23.00;61.30;;;;;;5053954;28;20103;-65
2022/08/08 09:57:49;;;;;;;3.55;1.10;;;23.00;62.00;;;;;;5052532;28;20043;-65
2022/08/08 10:00:16;;;;;;;3.45;1.23;;;23.00;61.30;;;;;;5053060;28;20049;-64
2022/08/08 10:02:43;;;;;;;7.07;1.60;;;22.90;61.30;;;;;;5052635;28;20486;-65
2022/08/08 10:05:15;;;;;;;6.40;1.40;;;23.00;61.40;;;;;;5053890;28;20048;-65
2022/08/08 10:07:59;;;;;;;5.40;1.00;;;23.00;61.40;;;;;;5053063;28;20083;-65
2022/08/08 10:10:25;;;;;;;3.35;1.35;;;23.00;61.30;;;;;;5053746;28;20048;-64
2022/08/08 10:12:50;;;;;;;3.60;1.02;;;23.00;61.30;;;;;;5053038;28;20064;-64
2022/08/08 10:15:16;;;;;;;5.82;1.13;;;23.00;61.20;;;;;;5052899;28;20457;-64
2022/08/08 10:17:45;;;;;;;2.65;0.93;;;23.00;61.20;;;;;;5053442;28;20037;-64
2022/08/08 10:20:11;;;;;;;4.00;1.00;;;23.00;61.10;;;;;;5052780;28;20056;-65
2022/08/08 10:22:39;;;;;;;5.97;1.00;;;23.00;61.20;;;;;;5053639;28;20052;-65
2022/08/08 10:25:06;;;;;;;;;;;22.90;61.10;;;;;;5069016;28;20045;-64
2022/08/08 10:27:42;;;;;;;3.10;1.10;;;23.00;61.10;;;;;;5051347;28;19920;-65
2022/08/08 10:30:08;;;;;;;2.55;1.27;;;23.00;61.20;;;;;;5053314;28;20041;-65
2022/08/08 10:32:37;;;;;;;3.08;0.90;;;22.90;61.20;;;;;;5052946;28;20143;-65
2022/08/08 10:35:13;;;;;;;2.08;0.80;;;23.00;61.20;;;;;;5052116;28;20118;-64
2022/08/08 10:37:48;;;;;;;3.53;1.10;;;23.00;61.20;;;;;;5053390;28;20116;-65
2022/08/08 10:40:14;;;;;;;3.35;1.30;;;23.00;61.30;;;;;;5067789;28;20052;-65
2022/08/08 10:42:40;;;;;;;3.08;1.13;;;23.00;61.20;;;;;;5052394;28;20769;-65
2022/08/08 10:45:07;;;;;;;2.90;1.00;;;23.00;61.20;;;;;;5052489;28;20123;-65
2022/08/08 10:47:32;;;;;;;2.40;1.10;;;23.00;61.20;;;;;;5053050;28;20044;-64
2022/08/08 10:49:59;;;;;;;5.47;1.10;;;23.00;61.10;;;;;;5050881;28;20396;-64
2022/08/08 10:52:38;;;;;;;2.60;0.90;;;23.00;61.10;;;;;;5052712;28;20049;-65
2022/08/08 10:55:17;;;;;;;2.55;1.10;;;23.10;61.20;;;;;;5052570;28;20053;-64
2022/08/08 10:57:47;;;;;;;3.17;1.13;;;23.10;61.10;;;;;;5051373;28;20481;-64
2022/08/08 11:00:21;;;;;;;2.20;1.10;;;23.10;61.10;;;;;;5052952;28;20118;-64
2022/08/08 11:02:46;;;;;;;1.88;0.93;;;23.00;61.10;;;;;;5051740;28;20076;-64
2022/08/08 11:05:12;;;;;;;3.47;1.13;;;23.10;61.10;;;;;;5051306;28;20119;-64
2022/08/08 11:07:38;;;;;;;3.53;1.20;;;23.10;61.10;;;;;;5052928;28;20179;-64
2022/08/08 11:10:12;;;;;;;2.50;0.90;;;23.10;61.10;;;;;;5051774;28;20072;-65
2022/08/08 11:12:55;;;;;;;2.97;1.35;;;23.10;61.10;;;;;;5052642;28;20066;-65
2022/08/08 11:15:25;;;;;;;3.63;0.85;;;23.10;61.10;;;;;;5052566;28;20048;-64
2022/08/08 11:17:51;;;;;;;2.08;1.00;;;23.10;61.00;;;;;;5066710;28;20049;-65
2022/08/08 11:20:26;;;;;;;2.20;0.90;;;23.10;61.00;;;;;;5052612;28;20060;-64
2022/08/08 11:22:53;;;;;;;3.08;1.10;;;23.10;61.00;;;;;;5051581;28;20480;-64
2022/08/08 11:25:29;;;;;;;3.25;0.88;;;23.10;61.00;;;;;;5052035;28;20045;-65
2022/08/08 11:27:56;;;;;;;2.50;1.10;;;23.10;61.00;;;;;;5052087;28;20481;-64
2022/08/08 11:30:23;;;;;;;2.53;0.80;;;23.10;61.00;;;;;;5052132;28;20048;-64
2022/08/08 11:32:53;;;;;;;1.52;0.80;;;23.10;61.00;;;;;;5050250;28;20518;-64
2022/08/08 11:35:20;;;;;;;2.83;0.70;;;23.10;61.00;;;;;;5052470;28;20049;-64
2022/08/08 11:37:46;;;;;;;3.20;0.90;;;23.10;61.00;;;;;;5066839;28;20110;-64
2022/08/08 11:40:11;;;;;;;2.05;0.80;;;23.10;60.90;;;;;;5051414;28;20045;-64
2022/08/08 11:42:38;;;;;;;2.47;1.00;;;23.10;60.90;;;;;;5052440;28;20437;-64
2022/08/08 11:45:05;;;;;;;2.63;1.15;;;23.10;61.00;;;;;;5051101;28;20041;-64
2022/08/08 11:47:31;;;;;;;2.05;1.00;;;23.10;61.00;;;;;;5067891;28;20132;-64
2022/08/08 11:49:59;;;;;;;3.08;1.05;;;23.10;61.00;;;;;;5050806;28;20463;-64
2022/08/08 11:52:25;;;;;;;1.95;0.80;;;23.10;60.90;;;;;;5067239;28;20049;-64
2022/08/08 11:54:51;;;;;;;1.75;0.70;;;23.10;60.90;;;;;;5067604;28;20461;-64
2022/08/08 11:57:16;;;;;;;1.40;1.00;;;23.10;61.00;;;;;;5054936;28;20048;-64
2022/08/08 11:59:59;;;;;;;2.25;0.98;;;23.10;61.00;;;;;;5055591;28;20049;-64
2022/08/08 12:02:26;;;;;;;2.70;1.27;;;23.20;61.10;;;;;;5056154;28;20040;-64
2022/08/08 12:05:10;;;;;;;2.63;0.80;;;23.10;61.00;;;;;;5055690;28;20492;-64
2022/08/08 12:07:54;;;;;;;3.28;0.80;;;23.20;61.00;;;;;;5055348;28;20303;-65
2022/08/08 12:10:21;;;;;;;2.10;0.75;;;23.20;60.80;;;;;;5056130;28;20045;-64
2022/08/08 12:12:48;;;;;;;2.87;0.80;;;23.10;60.70;;;;;;5055008;28;20055;-64
2022/08/08 12:15:27;;;;;;;1.83;0.80;;;23.20;60.70;;;;;;5055927;28;20413;-64
2022/08/08 12:17:53;;;;;;;2.60;0.90;;;23.20;60.50;;;;;;5055759;28;20049;-64
2022/08/08 12:20:19;;;;;;;1.65;0.70;;;23.20;60.50;;;;;;5070539;28;20037;-64
2022/08/08 12:22:47;;;;;;;3.15;0.80;;;23.10;60.40;;;;;;5055535;28;20048;-64
2022/08/08 12:25:20;;;;;;;3.10;0.85;;;23.20;60.50;;;;;;5055820;28;20041;-64
2022/08/08 12:27:46;;;;;;;2.65;0.95;;;23.20;60.40;;;;;;5054675;28;20053;-64
2022/08/08 12:30:12;;;;;;;3.42;1.33;;;23.20;60.50;;;;;;5054598;28;20095;-64
2022/08/08 12:32:45;;;;;;;3.35;0.90;;;23.20;60.50;;;;;;5055288;28;20132;-64
2022/08/08 12:35:20;;;;;;;3.05;0.80;;;23.20;60.50;;;;;;5055050;28;20069;-64
2022/08/08 12:37:57;;;;;;;3.55;0.90;;;23.20;60.60;;;;;;5055060;28;20485;-64
2022/08/08 12:40:23;;;;;;;4.15;1.13;;;23.20;60.50;;;;;;5055332;28;20489;-64
2022/08/08 12:42:48;;;;;;;2.63;0.90;;;23.20;60.50;;;;;;5052956;28;20076;-64
2022/08/08 12:45:14;;;;;;;1.05;0.70;;;23.20;60.50;;;;;;5055175;28;20136;-64
2022/08/08 12:47:40;;;;;;;1.33;0.70;;;23.20;60.50;;;;;;5054047;28;20080;-64
2022/08/08 12:50:06;;;;;;;2.30;0.90;;;23.30;60.50;;;;;;5053266;28;20049;-64
2022/08/08 12:52:38;;;;;;;3.63;0.80;;;23.30;60.40;;;;;;5055410;28;20106;-64
2022/08/08 12:55:05;;;;;;;2.00;0.90;;;23.30;60.50;;;;;;5054320;28;20082;-64
2022/08/08 12:57:31;;;;;;;2.53;0.65;;;23.30;60.40;;;;;;5054964;28;20041;-64
2022/08/08 12:59:57;;;;;;;2.67;0.80;;;23.30;60.40;;;;;;5054828;28;20532;-63
2022/08/08 13:02:27;;;;;;;3.10;0.75;;;23.30;60.40;;;;;;5054425;28;20045;-61
2022/08/08 13:04:54;;;;;;;2.70;0.80;;;23.30;60.30;;;;;;5054678;28;20044;-61
2022/08/08 13:07:20;;;;;;;1.80;0.73;;;23.30;59.90;;;;;;5054859;28;20048;-62
2022/08/08 13:09:52;;;;;;;1.80;0.70;;;23.30;59.40;;;;;;5069396;28;20041;-62
2022/08/08 13:12:23;;;;;;;2.08;0.63;;;23.30;58.80;;;;;;5054655;28;20102;-62
2022/08/08 13:14:50;;;;;;;5.32;0.90;;;23.30;58.30;;;;;;5053345;28;20112;-62
2022/08/08 13:17:16;;;;;;;2.17;0.80;;;23.30;58.20;;;;;;5065627;28;20052;-64